Time;durP1;ratioP1;P1;durP2;ratioP2;P2;SDS_P1;SDS_P2;PMS_P1;PMS_P2;Temp;Humidity;BMP_temperature;BMP_pressure;BME280_temperature;BME280_humidity;BME280_pressure;Samples;Min_cycle;Max_cycle;Signal;HPM_P1;HPM_P2
2022/01/12 00:01:56;;;;;;;18.40;10.95;;;;;;;;;;5006493;28;20034;-77
2022/01/12 00:04:22;;;;;;;23.88;13.65;;;;;;;;;;5010731;28;20651;-77
2022/01/12 00:06:48;;;;;;;22.40;12.43;;;;;;;;;;5010439;28;20026;-77
2022/01/12 00:09:15;;;;;;;23.42;12.75;;;;;;;;;;5010814;28;20034;-77
2022/01/12 00:11:41;;;;;;;22.33;12.02;;;;;;;;;;5005367;28;20044;-77
2022/01/12 00:14:08;;;;;;;22.77;11.52;;;;;;;;;;4991053;28;20102;-77
2022/01/12 00:16:34;;;;;;;21.65;12.57;;;;;;;;;;4994409;28;20034;-76
2022/01/12 00:19:00;;;;;;;27.65;16.08;;;;;;;;;;5010335;28;20038;-76
2022/01/12 00:21:26;;;;;;;22.80;14.07;;;;;;;;;;5010191;28;20037;-77
2022/01/12 00:23:53;;;;;;;30.13;17.33;;;;;;;;;;5008730;28;20054;-76
2022/01/12 00:34:47;;;;;;;21.10;13.27;;;;;;;;;;4937105;29;20050;-77
2022/01/12 00:37:13;;;;;;;24.35;13.75;;;;;;;;;;4985005;28;20477;-77
2022/01/12 00:39:39;;;;;;;23.33;13.85;;;;;;;;;;5029832;28;20033;-77
2022/01/12 00:42:10;;;;;;;20.58;12.10;;;;;;;;;;5037347;28;20439;-76
2022/01/12 00:44:36;;;;;;;18.85;12.55;;;;;;;;;;5036117;28;20029;-77
2022/01/12 00:47:02;;;;;;;22.65;12.75;;;;;;;;;;5037109;28;20041;-76
2022/01/12 00:49:28;;;;;;;19.38;11.98;;;;;;;;;;5036421;28;20038;-76
2022/01/12 00:51:54;;;;;;;19.85;11.82;;;;;;;;;;5036914;28;20112;-77
2022/01/12 00:54:21;;;;;;;17.05;10.93;;;;;;;;;;5035916;28;20116;-76
2022/01/12 00:56:47;;;;;;;17.67;11.02;;;;;;;;;;5036925;28;20037;-77
2022/01/12 00:59:13;;;;;;;20.30;10.70;;;;;;;;;;5035983;28;20045;-77
2022/01/12 01:01:40;;;;;;;18.67;10.90;;;;;;;;;;5036813;28;20043;-76
2022/01/12 01:04:07;;;;;;;17.92;11.02;;;;;;;;;;5035863;28;20562;-77
2022/01/12 01:06:35;;;;;;;15.65;10.05;;;;;;;;;;5036853;28;20472;-76
2022/01/12 01:09:01;;;;;;;19.45;10.18;;;;;;;;;;5028398;28;20507;-77
2022/01/12 01:11:27;;;;;;;20.55;11.20;;;;;;;;;;5036659;28;20076;-77
2022/01/12 01:14:02;;;;;;;22.98;13.82;;;;;;;;;;5019143;28;20041;-77
2022/01/12 01:17:04;;;;;;;18.80;11.60;;;;;;;;;;5036785;28;20793;-77
2022/01/12 01:27:35;;;;;;;14.77;8.95;;;;;;;;;;5004161;28;20122;-76
2022/01/12 01:30:02;;;;;;;16.85;8.25;;;;;;;;;;5015510;28;20054;-77
2022/01/12 01:32:28;;;;;;;12.07;7.20;;;;;;;;;;5016691;28;20041;-76
2022/01/12 01:34:54;;;;;;;13.93;7.72;;;;;;;;;;5014655;28;20030;-77
2022/01/12 01:37:20;;;;;;;14.27;7.03;;;;;;;;;;5015464;28;20044;-76
2022/01/12 01:39:46;;;;;;;16.75;9.15;;;;;;;;;;5011154;28;20034;-77
2022/01/12 01:42:25;;;;;;;19.17;10.35;;;;;;;;;;5013251;28;20080;-76
2022/01/12 01:55:32;;;;;;;18.85;11.32;;;;;;;;;;5002492;28;20810;-77
2022/01/12 01:57:58;;;;;;;21.70;13.25;;;;;;;;;;5013401;28;20112;-76
2022/01/12 02:00:26;;;;;;;20.65;13.57;;;;;;;;;;4993736;28;20038;-76
2022/01/12 02:02:54;;;;;;;22.23;12.85;;;;;;;;;;4992010;28;20768;-77
2022/01/12 02:05:20;;;;;;;20.38;11.77;;;;;;;;;;4994792;28;20081;-77
2022/01/12 02:07:47;;;;;;;22.60;12.30;;;;;;;;;;4993197;28;20038;-76
2022/01/12 02:10:13;;;;;;;24.13;13.25;;;;;;;;;;5007123;28;20084;-77
2022/01/12 02:12:39;;;;;;;20.65;11.93;;;;;;;;;;5012463;28;20465;-77
2022/01/12 02:15:12;;;;;;;25.05;13.70;;;;;;;;;;5002680;28;20452;-77
2022/01/12 02:17:51;;;;;;;20.80;11.98;;;;;;;;;;5004639;28;20042;-77
2022/01/12 02:35:11;;;;;;;22.20;12.80;;;;;;;;;;5008000;28;20048;-77
2022/01/12 02:37:02;;;;;;;18.85;11.82;;;;;;;;;;5012119;28;20088;-77
2022/01/12 02:42:17;;;;;;;22.20;13.43;;;;;;;;;;5011791;28;20125;-76
2022/01/12 02:50:57;;;;;;;21.38;12.88;;;;;;;;;;4993285;28;20040;-77
2022/01/12 02:53:42;;;;;;;21.17;12.05;;;;;;;;;;5011442;28;20030;-77
2022/01/12 02:56:15;;;;;;;23.10;13.85;;;;;;;;;;5012272;28;20037;-77
2022/01/12 02:58:42;;;;;;;19.73;11.15;;;;;;;;;;5011682;28;20080;-77
2022/01/12 03:03:43;;;;;;;20.60;11.55;;;;;;;;;;5011291;28;20056;-76
2022/01/12 03:06:10;;;;;;;20.20;11.35;;;;;;;;;;4993614;28;20026;-77
2022/01/12 03:08:37;;;;;;;17.25;9.57;;;;;;;;;;5011562;28;20558;-77
2022/01/12 03:11:07;;;;;;;15.85;10.20;;;;;;;;;;5011393;28;20021;-76
2022/01/12 03:13:33;;;;;;;17.00;11.32;;;;;;;;;;5010697;28;20033;-77
2022/01/12 03:15:59;;;;;;;20.75;10.90;;;;;;;;;;5011172;28;20036;-76
2022/01/12 03:18:25;;;;;;;20.05;9.55;;;;;;;;;;5010773;28;20038;-77
2022/01/12 03:20:51;;;;;;;18.23;9.80;;;;;;;;;;5000925;28;20034;-77
2022/01/12 03:23:17;;;;;;;16.85;9.82;;;;;;;;;;5024015;28;20053;-76
2022/01/12 03:25:44;;;;;;;17.92;10.02;;;;;;;;;;5030708;28;20049;-76
2022/01/12 03:28:10;;;;;;;19.52;9.93;;;;;;;;;;5030961;28;20034;-77
2022/01/12 03:30:55;;;;;;;17.60;9.90;;;;;;;;;;5030855;28;20076;-76
2022/01/12 03:38:49;;;;;;;20.48;9.48;;;;;;;;;;5013213;28;20055;-77
2022/01/12 03:41:15;;;;;;;18.55;10.18;;;;;;;;;;5030209;28;20691;-77
2022/01/12 03:43:41;;;;;;;19.48;10.20;;;;;;;;;;5030657;28;20763;-77
2022/01/12 03:46:08;;;;;;;19.90;9.68;;;;;;;;;;5029990;28;20236;-76
2022/01/12 03:48:34;;;;;;;22.60;11.15;;;;;;;;;;5030672;28;20071;-76
2022/01/12 03:51:00;;;;;;;23.58;11.38;;;;;;;;;;5030368;28;20026;-77
2022/01/12 03:53:26;;;;;;;21.50;9.68;;;;;;;;;;5030298;28;20095;-76
2022/01/12 03:55:52;;;;;;;20.38;9.38;;;;;;;;;;5030103;28;20380;-77
2022/01/12 03:58:18;;;;;;;15.10;9.32;;;;;;;;;;5030336;28;20037;-76
2022/01/12 04:00:44;;;;;;;18.75;9.95;;;;;;;;;;5029794;28;20025;-77
2022/01/12 04:03:12;;;;;;;20.70;10.65;;;;;;;;;;5018051;28;20038;-76
2022/01/12 04:08:21;;;;;;;17.92;10.00;;;;;;;;;;5027327;28;20068;-77
2022/01/12 04:10:51;;;;;;;16.88;9.80;;;;;;;;;;5024566;28;20093;-77
2022/01/12 04:13:18;;;;;;;17.80;11.18;;;;;;;;;;5010718;28;20044;-77
2022/01/12 04:15:46;;;;;;;17.83;9.60;;;;;;;;;;5013804;28;20714;-77
2022/01/12 04:18:12;;;;;;;15.82;9.15;;;;;;;;;;5030592;28;20045;-77
2022/01/12 04:20:44;;;;;;;16.77;10.32;;;;;;;;;;5029652;28;20041;-76
2022/01/12 04:23:17;;;;;;;15.88;9.80;;;;;;;;;;5030153;28;20791;-76
2022/01/12 04:25:48;;;;;;;19.20;9.20;;;;;;;;;;5029655;28;20053;-77
2022/01/12 04:28:15;;;;;;;16.15;9.27;;;;;;;;;;5030585;28;20116;-76
2022/01/12 04:30:41;;;;;;;23.67;13.35;;;;;;;;;;5030256;28;20117;-77
2022/01/12 04:33:07;;;;;;;21.55;10.70;;;;;;;;;;5030165;28;20072;-77
2022/01/12 04:35:36;;;;;;;20.00;11.30;;;;;;;;;;5030245;28;20479;-77
2022/01/12 04:38:05;;;;;;;20.27;9.82;;;;;;;;;;5030368;28;20028;-77
2022/01/12 04:40:32;;;;;;;17.70;9.38;;;;;;;;;;5030111;28;20079;-77
2022/01/12 04:42:58;;;;;;;15.45;8.07;;;;;;;;;;5029575;28;20052;-77
2022/01/12 04:50:19;;;;;;;10.93;5.85;;;;;;;;;;5030221;28;20037;-77
2022/01/12 04:52:45;;;;;;;12.90;7.03;;;;;;;;;;5029953;28;20083;-77
2022/01/12 04:55:11;;;;;;;15.77;9.43;;;;;;;;;;5029573;28;20038;-76
2022/01/12 04:57:37;;;;;;;13.32;7.50;;;;;;;;;;5030250;28;20515;-77
2022/01/12 05:00:14;;;;;;;16.23;7.55;;;;;;;;;;5030006;28;20041;-76
2022/01/12 05:08:19;;;;;;;10.82;6.65;;;;;;;;;;5019160;28;20048;-77
2022/01/12 05:13:31;;;;;;;9.60;4.63;;;;;;;;;;5027339;28;20075;-77
2022/01/12 05:15:58;;;;;;;11.32;5.38;;;;;;;;;;5032766;28;20030;-77
2022/01/12 05:18:24;;;;;;;8.95;4.35;;;;;;;;;;5033425;28;20030;-77
2022/01/12 05:20:50;;;;;;;14.15;4.38;;;;;;;;;;5032860;28;20026;-77
2022/01/12 05:23:16;;;;;;;12.07;4.95;;;;;;;;;;5033127;28;20061;-76
2022/01/12 05:25:46;;;;;;;8.95;4.60;;;;;;;;;;5020229;28;20058;-77
2022/01/12 05:28:12;;;;;;;11.32;4.20;;;;;;;;;;5014047;28;20037;-76
2022/01/12 05:30:38;;;;;;;10.35;4.88;;;;;;;;;;5007282;28;20402;-76
2022/01/12 05:33:04;;;;;;;12.13;6.07;;;;;;;;;;5014034;28;20049;-77
2022/01/12 05:35:33;;;;;;;16.88;6.10;;;;;;;;;;5013295;28;20037;-77
2022/01/12 05:37:59;;;;;;;13.00;6.05;;;;;;;;;;5014197;28;20037;-77
2022/01/12 05:40:26;;;;;;;10.73;5.32;;;;;;;;;;5010438;28;20037;-77
2022/01/12 05:42:53;;;;;;;10.05;4.45;;;;;;;;;;5009707;28;20034;-76
2022/01/12 05:45:21;;;;;;;13.05;5.28;;;;;;;;;;4999171;28;20117;-77
2022/01/12 05:50:14;;;;;;;14.90;6.32;;;;;;;;;;5013598;28;20691;-76
2022/01/12 05:52:40;;;;;;;10.25;5.10;;;;;;;;;;5005934;28;20030;-77
2022/01/12 05:55:07;;;;;;;10.05;5.43;;;;;;;;;;4993699;28;20034;-76
2022/01/12 05:57:33;;;;;;;15.18;6.05;;;;;;;;;;5000070;28;20812;-76
2022/01/12 06:00:00;;;;;;;16.08;7.35;;;;;;;;;;5013309;28;20358;-76
2022/01/12 06:02:26;;;;;;;12.77;6.60;;;;;;;;;;5012449;28;20161;-77
2022/01/12 06:04:52;;;;;;;9.82;5.90;;;;;;;;;;5009596;28;20049;-77
2022/01/12 06:07:18;;;;;;;12.10;5.43;;;;;;;;;;5015018;28;20053;-77
2022/01/12 06:09:44;;;;;;;11.88;4.40;;;;;;;;;;5013143;28;20038;-76
2022/01/12 06:12:10;;;;;;;10.50;5.10;;;;;;;;;;5005066;28;20022;-76
2022/01/12 06:14:36;;;;;;;20.10;5.97;;;;;;;;;;5001728;28;20783;-77
2022/01/12 06:17:02;;;;;;;21.65;7.47;;;;;;;;;;5005154;28;20026;-76
2022/01/12 06:19:28;;;;;;;15.57;6.43;;;;;;;;;;5005098;28;20046;-76
2022/01/12 06:21:54;;;;;;;10.35;6.50;;;;;;;;;;5011252;28;20357;-76
2022/01/12 06:24:20;;;;;;;14.07;6.63;;;;;;;;;;5030669;28;20033;-76
2022/01/12 06:26:47;;;;;;;17.65;7.85;;;;;;;;;;5026135;28;20033;-76
2022/01/12 06:31:45;;;;;;;;;;;;;;;;;;5032625;28;20022;-76
2022/01/12 06:34:11;;;;;;;17.98;7.35;;;;;;;;;;5026793;28;20695;-77
2022/01/12 06:36:37;;;;;;;20.05;9.43;;;;;;;;;;5027607;28;20038;-77
2022/01/12 06:39:06;;;;;;;17.10;8.45;;;;;;;;;;5012987;28;20037;-77
2022/01/12 06:41:32;;;;;;;20.38;9.65;;;;;;;;;;5029177;28;20037;-76
2022/01/12 06:43:58;;;;;;;24.98;11.20;;;;;;;;;;5031776;28;20876;-77
2022/01/12 06:46:29;;;;;;;24.60;10.30;;;;;;;;;;5031911;28;20041;-76
2022/01/12 06:48:55;;;;;;;15.63;8.95;;;;;;;;;;5031604;28;20049;-76
2022/01/12 06:51:21;;;;;;;21.55;10.15;;;;;;;;;;5024180;28;20069;-77
2022/01/12 06:53:47;;;;;;;18.10;10.10;;;;;;;;;;5026056;28;20031;-76
2022/01/12 06:56:17;;;;;;;20.50;9.65;;;;;;;;;;5019187;28;20043;-77
2022/01/12 06:58:46;;;;;;;17.33;10.57;;;;;;;;;;5031386;28;20033;-76
2022/01/12 07:01:12;;;;;;;15.80;7.93;;;;;;;;;;5029757;28;20037;-77
2022/01/12 07:03:38;;;;;;;13.98;7.90;;;;;;;;;;5016242;28;20038;-77
2022/01/12 07:06:04;;;;;;;17.05;8.30;;;;;;;;;;5021925;28;20029;-77
2022/01/12 07:08:32;;;;;;;13.27;7.60;;;;;;;;;;5030979;28;20469;-76
2022/01/12 07:10:58;;;;;;;17.38;7.47;;;;;;;;;;5028173;28;20025;-76
2022/01/12 07:13:25;;;;;;;20.00;6.78;;;;;;;;;;5030701;28;20084;-77
2022/01/12 07:15:51;;;;;;;12.98;6.43;;;;;;;;;;5026830;28;20385;-76
2022/01/12 07:18:19;;;;;;;14.60;6.93;;;;;;;;;;5025469;28;20034;-76
2022/01/12 07:20:45;;;;;;;14.43;7.65;;;;;;;;;;5010850;28;20754;-77
2022/01/12 07:23:11;;;;;;;13.23;7.47;;;;;;;;;;5027789;28;20072;-76
2022/01/12 07:25:37;;;;;;;17.48;9.05;;;;;;;;;;5026571;28;20596;-77
2022/01/12 07:28:03;;;;;;;16.23;6.95;;;;;;;;;;5017633;28;20150;-76
2022/01/12 07:30:29;;;;;;;13.95;6.13;;;;;;;;;;5019835;28;20025;-76
2022/01/12 07:32:55;;;;;;;18.92;7.50;;;;;;;;;;5025246;28;20026;-76
2022/01/12 07:35:21;;;;;;;14.20;6.03;;;;;;;;;;5024431;28;20115;-76
2022/01/12 07:37:47;;;;;;;11.95;5.72;;;;;;;;;;5025264;28;20037;-77
2022/01/12 07:40:13;;;;;;;10.77;5.70;;;;;;;;;;5022189;28;20087;-76
2022/01/12 07:42:39;;;;;;;13.90;5.80;;;;;;;;;;5023848;28;20037;-76
2022/01/12 07:45:06;;;;;;;13.27;5.53;;;;;;;;;;5020979;28;20058;-77
2022/01/12 07:47:32;;;;;;;11.95;5.93;;;;;;;;;;5025326;28;20034;-77
2022/01/12 07:49:59;;;;;;;14.60;4.90;;;;;;;;;;5020503;28;20437;-76
2022/01/12 07:52:25;;;;;;;10.18;5.40;;;;;;;;;;5025757;28;20034;-76
2022/01/12 07:54:51;;;;;;;13.00;6.05;;;;;;;;;;5022528;28;20048;-76
2022/01/12 07:57:17;;;;;;;8.55;4.43;;;;;;;;;;5016056;28;20040;-77
2022/01/12 07:59:43;;;;;;;11.15;5.75;;;;;;;;;;5021824;28;20065;-77
2022/01/12 08:02:11;;;;;;;12.43;5.80;;;;;;;;;;5017694;28;20074;-77
2022/01/12 08:04:37;;;;;;;13.45;5.25;;;;;;;;;;5026046;28;20037;-77
2022/01/12 08:07:03;;;;;;;11.88;5.85;;;;;;;;;;5024981;28;20029;-77
2022/01/12 08:09:30;;;;;;;10.63;4.68;;;;;;;;;;5027918;28;20484;-76
2022/01/12 08:11:56;;;;;;;11.10;4.90;;;;;;;;;;5020765;28;20033;-76
2022/01/12 08:14:22;;;;;;;9.13;5.10;;;;;;;;;;5027569;28;20075;-77
2022/01/12 08:16:48;;;;;;;11.25;4.50;;;;;;;;;;5030270;28;20076;-77
2022/01/12 08:19:17;;;;;;;13.80;5.88;;;;;;;;;;5029189;28;20080;-76
2022/01/12 08:21:44;;;;;;;12.23;6.35;;;;;;;;;;5024237;28;20532;-76
2022/01/12 08:24:11;;;;;;;10.98;5.95;;;;;;;;;;5025575;28;20076;-77
2022/01/12 08:26:37;;;;;;;11.68;7.00;;;;;;;;;;5024154;28;20403;-76
2022/01/12 08:29:03;;;;;;;13.10;7.28;;;;;;;;;;5025022;28;20029;-76
2022/01/12 08:31:30;;;;;;;14.23;6.78;;;;;;;;;;5027224;28;20029;-77
2022/01/12 08:33:56;;;;;;;8.57;5.00;;;;;;;;;;5029459;28;20065;-77
2022/01/12 08:36:22;;;;;;;10.55;5.80;;;;;;;;;;5028967;28;20056;-76
2022/01/12 08:38:48;;;;;;;12.45;6.35;;;;;;;;;;5029625;28;20037;-76
2022/01/12 08:41:14;;;;;;;13.18;7.20;;;;;;;;;;5029425;28;20041;-76
2022/01/12 08:43:41;;;;;;;14.88;7.45;;;;;;;;;;5029696;28;20159;-77
2022/01/12 08:46:08;;;;;;;16.33;7.78;;;;;;;;;;5027740;28;20120;-77
2022/01/12 08:48:34;;;;;;;15.18;7.65;;;;;;;;;;5030433;28;20037;-77
2022/01/12 08:51:01;;;;;;;13.70;7.25;;;;;;;;;;5025250;28;20487;-76
2022/01/12 08:53:27;;;;;;;14.50;6.90;;;;;;;;;;5034217;28;20064;-76
2022/01/12 08:55:53;;;;;;;15.85;6.35;;;;;;;;;;5026878;28;20603;-76
2022/01/12 08:58:19;;;;;;;12.13;5.85;;;;;;;;;;5027301;28;20033;-76
2022/01/12 09:00:45;;;;;;;15.45;6.20;;;;;;;;;;5026887;28;20488;-77
2022/01/12 09:03:12;;;;;;;11.73;5.65;;;;;;;;;;5030051;28;20111;-76
2022/01/12 09:05:38;;;;;;;13.27;5.22;;;;;;;;;;5033087;28;20055;-76
2022/01/12 09:08:04;;;;;;;14.75;5.63;;;;;;;;;;5030322;28;20037;-76
2022/01/12 09:10:31;;;;;;;10.55;5.78;;;;;;;;;;5026692;28;20034;-76
2022/01/12 09:12:57;;;;;;;16.77;6.07;;;;;;;;;;5028207;28;20778;-77
2022/01/12 09:15:25;;;;;;;12.95;7.05;;;;;;;;;;5032032;28;20038;-76
2022/01/12 09:17:51;;;;;;;11.73;5.53;;;;;;;;;;5032073;28;20071;-77
2022/01/12 09:20:17;;;;;;;9.75;5.60;;;;;;;;;;5032537;28;20484;-76
2022/01/12 09:22:43;;;;;;;13.88;5.90;;;;;;;;;;5020186;28;20053;-77
2022/01/12 09:25:09;;;;;;;18.75;7.38;;;;;;;;;;5031935;28;20116;-77
2022/01/12 09:27:36;;;;;;;14.77;6.63;;;;;;;;;;5032827;28;20071;-76
2022/01/12 09:30:02;;;;;;;13.27;6.43;;;;;;;;;;5031738;28;20034;-77
2022/01/12 09:32:28;;;;;;;14.45;6.70;;;;;;;;;;5020686;28;20080;-76
2022/01/12 09:34:54;;;;;;;16.60;9.00;;;;;;;;;;5030748;28;20370;-77
2022/01/12 09:37:21;;;;;;;42.30;19.73;;;;;;;;;;5029342;28;20088;-77
2022/01/12 09:39:47;;;;;;;12.98;7.20;;;;;;;;;;5029863;28;20122;-76
2022/01/12 09:42:13;;;;;;;13.43;6.95;;;;;;;;;;5027034;28;20048;-76
2022/01/12 09:44:44;;;;;;;14.02;7.80;;;;;;;;;;5025682;28;20465;-76
2022/01/12 09:47:10;;;;;;;13.43;6.75;;;;;;;;;;5022881;28;20037;-76
2022/01/12 09:49:37;;;;;;;14.10;6.72;;;;;;;;;;5025297;28;20469;-76
2022/01/12 09:52:03;;;;;;;20.77;11.35;;;;;;;;;;5026185;28;20029;-76
2022/01/12 09:54:29;;;;;;;11.10;6.53;;;;;;;;;;5026990;28;20037;-77
2022/01/12 09:56:57;;;;;;;9.73;5.88;;;;;;;;;;5032031;28;20039;-77
2022/01/12 09:59:23;;;;;;;12.73;6.88;;;;;;;;;;5021572;28;20059;-77
2022/01/12 10:01:51;;;;;;;10.20;6.13;;;;;;;;;;5024687;28;20044;-77
2022/01/12 10:04:21;;;;;;;10.15;6.47;;;;;;;;;;5031515;28;20079;-77
2022/01/12 10:06:49;;;;;;;9.90;5.32;;;;;;;;;;5032653;28;20032;-77
2022/01/12 10:09:15;;;;;;;9.40;5.85;;;;;;;;;;5022563;28;20034;-77
2022/01/12 10:11:56;;;;;;;15.23;6.10;;;;;;;;;;5032456;28;20052;-77
2022/01/12 10:14:22;;;;;;;11.02;5.43;;;;;;;;;;5023990;28;20080;-76
2022/01/12 10:16:53;;;;;;;9.30;4.68;;;;;;;;;;5032284;28;20037;-77
2022/01/12 10:19:26;;;;;;;10.07;5.97;;;;;;;;;;5032154;28;20041;-77
2022/01/12 10:21:52;;;;;;;14.25;6.20;;;;;;;;;;5032089;28;20033;-77
2022/01/12 10:24:20;;;;;;;15.95;7.85;;;;;;;;;;5032304;28;20116;-77
2022/01/12 10:26:47;;;;;;;12.52;5.63;;;;;;;;;;5032596;28;20759;-76
2022/01/12 10:29:17;;;;;;;12.52;5.93;;;;;;;;;;5031636;28;20041;-77
2022/01/12 10:31:52;;;;;;;9.90;5.40;;;;;;;;;;5027808;28;20030;-76
2022/01/12 10:34:20;;;;;;;10.38;6.00;;;;;;;;;;5019775;28;20056;-77
2022/01/12 10:36:47;;;;;;;12.27;6.03;;;;;;;;;;5032482;28;20034;-77
2022/01/12 10:39:14;;;;;;;12.73;6.35;;;;;;;;;;5023471;28;20046;-77
2022/01/12 10:41:56;;;;;;;11.30;6.63;;;;;;;;;;5031279;28;20044;-77
2022/01/12 10:44:33;;;;;;;12.00;6.47;;;;;;;;;;5011558;28;20044;-76
2022/01/12 10:47:19;;;;;;;11.93;6.03;;;;;;;;;;5026336;28;20045;-77
2022/01/12 10:49:58;;;;;;;11.07;5.35;;;;;;;;;;5030977;28;20080;-76
2022/01/12 10:52:25;;;;;;;11.40;5.47;;;;;;;;;;5031989;28;20026;-76
2022/01/12 10:54:56;;;;;;;14.35;6.18;;;;;;;;;;5030541;28;20502;-77
2022/01/12 10:57:22;;;;;;;10.55;5.88;;;;;;;;;;5025691;28;20039;-77
2022/01/12 11:00:08;;;;;;;10.27;6.45;;;;;;;;;;5024946;28;20037;-76
2022/01/12 11:02:35;;;;;;;11.15;5.57;;;;;;;;;;5015839;28;20041;-77
2022/01/12 11:05:02;;;;;;;9.57;5.30;;;;;;;;;;5026914;28;20443;-77
2022/01/12 11:07:30;;;;;;;9.32;5.85;;;;;;;;;;5023317;28;20032;-76
2022/01/12 11:09:57;;;;;;;10.90;6.00;;;;;;;;;;5025571;28;20036;-77
2022/01/12 11:12:23;;;;;;;17.13;6.55;;;;;;;;;;5029442;28;20063;-77
2022/01/12 11:14:50;;;;;;;12.65;6.40;;;;;;;;;;5022365;28;20045;-77
2022/01/12 11:17:16;;;;;;;10.90;5.85;;;;;;;;;;5023696;28;20527;-76
2022/01/12 11:19:48;;;;;;;13.68;6.45;;;;;;;;;;5023167;28;20121;-76
2022/01/12 11:22:21;;;;;;;7.47;4.50;;;;;;;;;;5022943;28;20500;-77
2022/01/12 11:24:47;;;;;;;13.70;6.97;;;;;;;;;;5024197;28;20284;-77
2022/01/12 11:27:20;;;;;;;9.82;5.72;;;;;;;;;;5026630;28;20091;-77
2022/01/12 11:29:47;;;;;;;11.38;6.30;;;;;;;;;;5023778;28;20071;-76
2022/01/12 11:32:21;;;;;;;16.60;6.78;;;;;;;;;;5024100;28;20499;-76
2022/01/12 11:34:57;;;;;;;17.00;7.85;;;;;;;;;;5022990;28;20112;-76
2022/01/12 11:37:24;;;;;;;11.07;6.60;;;;;;;;;;5018376;28;20560;-77
2022/01/12 11:39:50;;;;;;;11.57;6.53;;;;;;;;;;5023822;28;20065;-77
2022/01/12 11:42:18;;;;;;;9.70;6.10;;;;;;;;;;5027747;28;20068;-76
2022/01/12 11:44:44;;;;;;;9.68;6.32;;;;;;;;;;5023812;28;20034;-76
2022/01/12 11:47:15;;;;;;;12.95;7.45;;;;;;;;;;5025252;28;20029;-77
2022/01/12 11:49:43;;;;;;;11.43;6.97;;;;;;;;;;5033642;28;20488;-77
2022/01/12 11:52:14;;;;;;;13.02;8.98;;;;;;;;;;5022797;28;20356;-76
2022/01/12 11:54:44;;;;;;;13.23;7.63;;;;;;;;;;5026903;28;20029;-77
2022/01/12 11:57:13;;;;;;;13.73;7.85;;;;;;;;;;5028606;28;20040;-77
2022/01/12 11:59:51;;;;;;;18.48;9.88;;;;;;;;;;5024351;28;20530;-77
2022/01/12 12:02:19;;;;;;;16.20;9.48;;;;;;;;;;5028266;28;20025;-76
2022/01/12 12:04:55;;;;;;;16.17;8.43;;;;;;;;;;5024940;28;20072;-76
2022/01/12 12:07:25;;;;;;;12.88;7.07;;;;;;;;;;5023887;28;20052;-77
2022/01/12 12:09:53;;;;;;;11.45;6.60;;;;;;;;;;5021136;28;20029;-77
2022/01/12 12:12:32;;;;;;;14.73;6.63;;;;;;;;;;5026179;28;20036;-77
2022/01/12 12:14:59;;;;;;;9.13;6.20;;;;;;;;;;5025189;28;20651;-77
2022/01/12 12:17:27;;;;;;;13.90;6.93;;;;;;;;;;5017902;28;20121;-77
2022/01/12 12:19:54;;;;;;;12.13;7.15;;;;;;;;;;5022103;28;20043;-76
2022/01/12 12:22:28;;;;;;;13.60;8.07;;;;;;;;;;5023544;28;20175;-77
2022/01/12 12:24:58;;;;;;;11.23;6.78;;;;;;;;;;5021476;28;20046;-77
2022/01/12 12:27:26;;;;;;;10.85;6.25;;;;;;;;;;5021505;28;20034;-77
2022/01/12 12:29:53;;;;;;;11.80;7.28;;;;;;;;;;5024801;28;20053;-76
2022/01/12 12:32:20;;;;;;;12.73;7.15;;;;;;;;;;5025509;28;20116;-77
2022/01/12 12:34:46;;;;;;;14.10;7.95;;;;;;;;;;5022263;28;20769;-77
2022/01/12 12:37:14;;;;;;;14.40;8.25;;;;;;;;;;5022690;28;20030;-77
2022/01/12 12:39:42;;;;;;;13.77;7.35;;;;;;;;;;5026005;28;20116;-76
2022/01/12 12:42:17;;;;;;;10.93;6.60;;;;;;;;;;5021943;28;20029;-77
2022/01/12 12:44:43;;;;;;;12.20;6.15;;;;;;;;;;5020337;28;20042;-77
2022/01/12 12:47:15;;;;;;;11.23;6.90;;;;;;;;;;5021084;28;20029;-77
2022/01/12 12:49:57;;;;;;;11.18;6.30;;;;;;;;;;5020200;28;20038;-77
2022/01/12 12:52:30;;;;;;;9.65;5.88;;;;;;;;;;5019331;28;20049;-76
2022/01/12 12:54:57;;;;;;;11.70;7.00;;;;;;;;;;5021152;28;20030;-77
2022/01/12 12:57:24;;;;;;;11.23;6.18;;;;;;;;;;5019653;28;20025;-76
2022/01/12 13:00:05;;;;;;;9.63;6.60;;;;;;;;;;5022430;28;20037;-77
2022/01/12 13:02:35;;;;;;;12.93;6.97;;;;;;;;;;5023463;28;20042;-77
2022/01/12 13:05:03;;;;;;;10.00;5.85;;;;;;;;;;5023667;28;20034;-77
2022/01/12 13:07:29;;;;;;;12.10;7.45;;;;;;;;;;5015427;28;20030;-77
2022/01/12 13:10:03;;;;;;;12.30;7.68;;;;;;;;;;5025912;28;20061;-76
2022/01/12 13:12:35;;;;;;;9.38;5.68;;;;;;;;;;5028126;28;20055;-77
2022/01/12 13:15:01;;;;;;;12.40;5.90;;;;;;;;;;5026681;28;20040;-77
2022/01/12 13:17:27;;;;;;;9.82;5.13;;;;;;;;;;5020600;28;20030;-77
2022/01/12 13:22:30;;;;;;;8.93;4.85;;;;;;;;;;5024180;28;20050;-76
2022/01/12 13:24:57;;;;;;;8.73;5.28;;;;;;;;;;5022016;28;20083;-76
2022/01/12 13:27:24;;;;;;;9.20;4.53;;;;;;;;;;5028953;28;20029;-77
2022/01/12 13:29:51;;;;;;;11.48;4.95;;;;;;;;;;5028615;28;20065;-77
2022/01/12 13:32:17;;;;;;;9.50;5.20;;;;;;;;;;5021203;28;20068;-77
2022/01/12 13:35:01;;;;;;;10.68;5.97;;;;;;;;;;5026200;28;20098;-77
2022/01/12 13:37:27;;;;;;;12.27;6.22;;;;;;;;;;5027230;28;20030;-77
2022/01/12 13:40:13;;;;;;;14.27;5.97;;;;;;;;;;5029463;28;20468;-77
2022/01/12 13:42:50;;;;;;;12.50;6.32;;;;;;;;;;5028109;28;20044;-77
2022/01/12 13:45:18;;;;;;;13.27;6.32;;;;;;;;;;5026961;28;20065;-77
2022/01/12 13:47:50;;;;;;;22.52;10.52;;;;;;;;;;5025186;28;20072;-77
2022/01/12 13:50:17;;;;;;;18.73;7.13;;;;;;;;;;5020555;28;20044;-77
2022/01/12 13:52:53;;;;;;;10.73;6.40;;;;;;;;;;5027604;28;20500;-77
2022/01/12 13:55:19;;;;;;;13.00;6.07;;;;;;;;;;5021225;28;20034;-77
2022/01/12 13:57:45;;;;;;;9.52;5.65;;;;;;;;;;5020304;28;20912;-76
2022/01/12 14:00:21;;;;;;;12.38;7.20;;;;;;;;;;5032506;28;20045;-77
2022/01/12 14:02:47;;;;;;;22.63;12.30;;;;;;;;;;5032220;28;20108;-77
2022/01/12 14:05:19;;;;;;;24.58;12.77;;;;;;;;;;5032290;28;20117;-77
2022/01/12 14:07:59;;;;;;;22.97;12.27;;;;;;;;;;5028046;28;20032;-77
2022/01/12 14:10:26;;;;;;;19.48;10.40;;;;;;;;;;5026807;28;20362;-77
2022/01/12 14:12:53;;;;;;;17.58;10.23;;;;;;;;;;5023867;28;20032;-76
2022/01/12 14:15:23;;;;;;;13.15;7.97;;;;;;;;;;5031384;28;20044;-76
2022/01/12 14:17:49;;;;;;;16.50;6.53;;;;;;;;;;5031754;28;20046;-77
2022/01/12 14:20:23;;;;;;;9.82;5.78;;;;;;;;;;5026321;28;20048;-77
2022/01/12 14:22:49;;;;;;;12.05;6.63;;;;;;;;;;5028866;28;20053;-76
2022/01/12 14:25:15;;;;;;;21.33;12.30;;;;;;;;;;5023490;28;20762;-76
2022/01/12 14:27:46;;;;;;;20.40;13.45;;;;;;;;;;5021581;28;20036;-76
2022/01/12 14:30:13;;;;;;;20.10;12.32;;;;;;;;;;5021172;28;20033;-76
2022/01/12 14:32:40;;;;;;;15.90;8.63;;;;;;;;;;5022864;28;20029;-76
2022/01/12 14:35:08;;;;;;;15.15;7.97;;;;;;;;;;5022632;28;20503;-77
2022/01/12 14:37:34;;;;;;;19.83;9.30;;;;;;;;;;5030254;28;20761;-77
2022/01/12 14:40:01;;;;;;;13.75;7.82;;;;;;;;;;5030100;28;20029;-77
2022/01/12 14:42:27;;;;;;;17.25;7.13;;;;;;;;;;5026238;28;20041;-76
2022/01/12 14:44:53;;;;;;;13.48;7.53;;;;;;;;;;5029567;28;20080;-77
2022/01/12 14:47:19;;;;;;;15.27;7.88;;;;;;;;;;5020090;28;20056;-76
2022/01/12 14:49:45;;;;;;;14.13;7.30;;;;;;;;;;5027230;28;20025;-77
2022/01/12 14:52:11;;;;;;;14.20;7.70;;;;;;;;;;5019637;28;20864;-76
2022/01/12 14:54:37;;;;;;;11.88;7.25;;;;;;;;;;5029928;28;20037;-76
2022/01/12 14:57:03;;;;;;;14.27;7.18;;;;;;;;;;5031907;28;20033;-76
2022/01/12 14:59:29;;;;;;;14.18;7.75;;;;;;;;;;5030778;28;20511;-77
2022/01/12 15:01:55;;;;;;;15.85;7.50;;;;;;;;;;5022749;28;20039;-76
2022/01/12 15:04:27;;;;;;;14.85;6.70;;;;;;;;;;5027004;28;20041;-76
2022/01/12 15:06:53;;;;;;;11.70;7.37;;;;;;;;;;5026240;28;20063;-76
2022/01/12 15:09:19;;;;;;;10.50;6.43;;;;;;;;;;5027676;28;20392;-76
2022/01/12 15:11:48;;;;;;;15.60;6.75;;;;;;;;;;5021098;28;20314;-76
2022/01/12 15:17:07;;;;;;;20.42;10.23;;;;;;;;;;4996634;28;20042;-76
2022/01/12 15:19:33;;;;;;;17.55;10.60;;;;;;;;;;5023192;28;20030;-76
2022/01/12 15:21:59;;;;;;;16.35;9.13;;;;;;;;;;5027385;28;20520;-76
2022/01/12 15:24:26;;;;;;;16.73;10.00;;;;;;;;;;5027362;28;20044;-76
2022/01/12 15:26:52;;;;;;;14.90;9.45;;;;;;;;;;5020985;28;20807;-76
2022/01/12 15:29:18;;;;;;;21.13;10.02;;;;;;;;;;5017483;28;20659;-76
2022/01/12 15:31:44;;;;;;;21.10;12.05;;;;;;;;;;5030228;28;20030;-77
2022/01/12 15:34:10;;;;;;;19.90;12.52;;;;;;;;;;5017635;28;20037;-76
2022/01/12 15:36:36;;;;;;;20.67;10.82;;;;;;;;;;5024278;28;20033;-77
2022/01/12 15:39:03;;;;;;;21.45;10.68;;;;;;;;;;5023804;28;20080;-76
2022/01/12 15:41:29;;;;;;;21.75;10.35;;;;;;;;;;5027196;28;20068;-77
2022/01/12 15:43:55;;;;;;;15.50;8.50;;;;;;;;;;5020196;28;20037;-76
2022/01/12 15:46:21;;;;;;;18.77;9.40;;;;;;;;;;5029238;28;20040;-76
2022/01/12 15:48:47;;;;;;;15.52;8.98;;;;;;;;;;5025996;28;20040;-77
2022/01/12 15:51:13;;;;;;;16.92;9.55;;;;;;;;;;5028097;28;20377;-77
2022/01/12 15:53:39;;;;;;;14.52;8.32;;;;;;;;;;5026680;28;20033;-77
2022/01/12 15:56:06;;;;;;;15.30;9.50;;;;;;;;;;5026253;28;20040;-76
2022/01/12 15:58:32;;;;;;;18.10;8.43;;;;;;;;;;5021335;28;20030;-76